sensor_id;sensor_type;location;lat;lon;timestamp;temperature;humidity
4922;DHT22;16625;53.624;10.106;2022-12-29T00:01:50;6.80;99.90
4922;DHT22;16625;53.624;10.106;2022-12-29T00:04:19;7.40;99.90
4922;DHT22;16625;53.624;10.106;2022-12-29T00:06:47;7.50;99.90
4922;DHT22;16625;53.624;10.106;2022-12-29T00:09:16;7.60;99.90
4922;DHT22;16625;53.624;10.106;2022-12-29T00:11:45;7.20;99.90
4922;DHT22;16625;53.624;10.106;2022-12-29T00:14:19;7.60;99.90
4922;DHT22;16625;53.624;10.106;2022-12-29T00:17:03;7.10;99.90
4922;DHT22;16625;53.624;10.106;2022-12-29T00:19:32;7.60;99.90
4922;DHT22;16625;53.624;10.106;2022-12-29T00:22:16;7.70;99.90
4922;DHT22;16625;53.624;10.106;2022-12-29T00:25:01;8.50;99.90
4922;DHT22;16625;53.624;10.106;2022-12-29T00:27:46;8.70;99.90
4922;DHT22;16625;53.624;10.106;2022-12-29T00:30:35;7.70;99.90
4922;DHT22;16625;53.624;10.106;2022-12-29T00:33:35;8.40;99.90
4922;DHT22;16625;53.624;10.106;2022-12-29T00:36:23;7.50;99.90
4922;DHT22;16625;53.624;10.106;2022-12-29T00:38:54;7.80;99.90
4922;DHT22;16625;53.624;10.106;2022-12-29T00:41:40;7.80;99.90
4922;DHT22;16625;53.624;10.106;2022-12-29T00:44:24;7.80;99.90
4922;DHT22;16625;53.624;10.106;2022-12-29T00:46:56;6.70;99.90
4922;DHT22;16625;53.624;10.106;2022-12-29T00:49:27;7.70;99.90
4922;DHT22;16625;53.624;10.106;2022-12-29T00:52:00;7.90;99.90
4922;DHT22;16625;53.624;10.106;2022-12-29T00:54:28;6.90;99.90
4922;DHT22;16625;53.624;10.106;2022-12-29T00:56:56;8.00;99.90
4922;DHT22;16625;53.624;10.106;2022-12-29T00:59:24;8.00;99.90
4922;DHT22;16625;53.624;10.106;2022-12-29T01:01:55;8.00;99.90
4922;DHT22;16625;53.624;10.106;2022-12-29T01:04:23;9.20;99.90
4922;DHT22;16625;53.624;10.106;2022-12-29T01:06:52;7.70;99.90
4922;DHT22;16625;53.624;10.106;2022-12-29T01:09:20;7.20;99.90
4922;DHT22;16625;53.624;10.106;2022-12-29T01:12:06;6.80;99.90
4922;DHT22;16625;53.624;10.106;2022-12-29T01:14:33;9.20;99.90
4922;DHT22;16625;53.624;10.106;2022-12-29T01:17:01;9.30;99.90
4922;DHT22;16625;53.624;10.106;2022-12-29T01:19:29;7.90;99.90
4922;DHT22;16625;53.624;10.106;2022-12-29T01:21:57;8.00;99.90
4922;DHT22;16625;53.624;10.106;2022-12-29T01:24:23;8.30;99.90
4922;DHT22;16625;53.624;10.106;2022-12-29T01:26:51;8.90;99.90
4922;DHT22;16625;53.624;10.106;2022-12-29T01:29:20;8.10;99.90
4922;DHT22;16625;53.624;10.106;2022-12-29T01:31:47;8.10;99.90
4922;DHT22;16625;53.624;10.106;2022-12-29T01:34:17;7.10;99.90
4922;DHT22;16625;53.624;10.106;2022-12-29T01:36:44;7.60;99.90
4922;DHT22;16625;53.624;10.106;2022-12-29T01:39:11;8.90;99.90
4922;DHT22;16625;53.624;10.106;2022-12-29T01:41:38;8.10;99.90
4922;DHT22;16625;53.624;10.106;2022-12-29T01:44:47;8.50;99.90
4922;DHT22;16625;53.624;10.106;2022-12-29T01:47:18;8.20;99.90
4922;DHT22;16625;53.624;10.106;2022-12-29T01:50:06;8.20;99.90
4922;DHT22;16625;53.624;10.106;2022-12-29T01:52:37;8.20;99.90
4922;DHT22;16625;53.624;10.106;2022-12-29T01:55:06;9.20;99.90
4922;DHT22;16625;53.624;10.106;2022-12-29T01:57:37;8.20;99.90
4922;DHT22;16625;53.624;10.106;2022-12-29T02:00:07;8.20;99.90
4922;DHT22;16625;53.624;10.106;2022-12-29T02:02:35;8.20;99.90
4922;DHT22;16625;53.624;10.106;2022-12-29T02:05:09;8.10;99.90
4922;DHT22;16625;53.624;10.106;2022-12-29T02:07:38;8.20;99.90
4922;DHT22;16625;53.624;10.106;2022-12-29T02:10:06;9.10;99.90
4922;DHT22;16625;53.624;10.106;2022-12-29T02:12:34;8.10;99.90
4922;DHT22;16625;53.624;10.106;2022-12-29T02:15:03;9.10;99.90
4922;DHT22;16625;53.624;10.106;2022-12-29T02:17:53;7.30;99.90
4922;DHT22;16625;53.624;10.106;2022-12-29T02:23:49;8.20;99.90
4922;DHT22;16625;53.624;10.106;2022-12-29T02:26:35;9.20;99.90
4922;DHT22;16625;53.624;10.106;2022-12-29T02:32:56;9.50;99.90
4922;DHT22;16625;53.624;10.106;2022-12-29T02:35:32;8.10;99.90
4922;DHT22;16625;53.624;10.106;2022-12-29T02:38:12;8.30;99.90
4922;DHT22;16625;53.624;10.106;2022-12-29T02:41:01;8.20;99.90
4922;DHT22;16625;53.624;10.106;2022-12-29T02:43:50;7.50;99.90
4922;DHT22;16625;53.624;10.106;2022-12-29T02:56:50;8.20;99.90
4922;DHT22;16625;53.624;10.106;2022-12-29T02:59:19;9.50;99.90
4922;DHT22;16625;53.624;10.106;2022-12-29T03:02:01;8.10;99.90
4922;DHT22;16625;53.624;10.106;2022-12-29T03:05:11;8.70;99.90
4922;DHT22;16625;53.624;10.106;2022-12-29T03:07:47;8.20;99.90
4922;DHT22;16625;53.624;10.106;2022-12-29T03:10:25;9.50;99.90
4922;DHT22;16625;53.624;10.106;2022-12-29T03:13:01;8.10;99.90
4922;DHT22;16625;53.624;10.106;2022-12-29T03:15:53;9.10;99.90
4922;DHT22;16625;53.624;10.106;2022-12-29T03:18:39;7.30;99.90
4922;DHT22;16625;53.624;10.106;2022-12-29T03:21:11;7.60;99.90
4922;DHT22;16625;53.624;10.106;2022-12-29T03:23:41;7.50;99.90
4922;DHT22;16625;53.624;10.106;2022-12-29T03:26:11;9.30;99.90
4922;DHT22;16625;53.624;10.106;2022-12-29T03:28:46;8.90;99.90
4922;DHT22;16625;53.624;10.106;2022-12-29T03:31:15;8.30;99.90
4922;DHT22;16625;53.624;10.106;2022-12-29T03:33:44;9.90;99.90
4922;DHT22;16625;53.624;10.106;2022-12-29T03:36:17;6.80;99.90
4922;DHT22;16625;53.624;10.106;2022-12-29T03:38:49;9.60;99.90
4922;DHT22;16625;53.624;10.106;2022-12-29T03:41:19;9.20;99.90
4922;DHT22;16625;53.624;10.106;2022-12-29T03:43:49;7.10;99.90
4922;DHT22;16625;53.624;10.106;2022-12-29T03:46:16;9.10;99.90
4922;DHT22;16625;53.624;10.106;2022-12-29T03:48:44;9.00;99.90
4922;DHT22;16625;53.624;10.106;2022-12-29T03:51:12;7.20;99.90
4922;DHT22;16625;53.624;10.106;2022-12-29T03:53:40;8.30;99.90
4922;DHT22;16625;53.624;10.106;2022-12-29T03:56:07;8.40;99.90
4922;DHT22;16625;53.624;10.106;2022-12-29T03:58:34;8.30;99.90
4922;DHT22;16625;53.624;10.106;2022-12-29T04:01:02;9.80;99.90
4922;DHT22;16625;53.624;10.106;2022-12-29T04:03:30;9.70;99.90
4922;DHT22;16625;53.624;10.106;2022-12-29T04:05:57;8.40;99.90
4922;DHT22;16625;53.624;10.106;2022-12-29T04:08:26;8.40;99.90
4922;DHT22;16625;53.624;10.106;2022-12-29T04:10:54;9.60;99.90
4922;DHT22;16625;53.624;10.106;2022-12-29T04:13:21;8.40;99.90
4922;DHT22;16625;53.624;10.106;2022-12-29T04:15:49;9.60;99.90
4922;DHT22;16625;53.624;10.106;2022-12-29T04:18:18;8.50;99.90
4922;DHT22;16625;53.624;10.106;2022-12-29T04:20:46;8.40;99.90
4922;DHT22;16625;53.624;10.106;2022-12-29T04:23:30;8.50;99.90
4922;DHT22;16625;53.624;10.106;2022-12-29T04:25:57;9.80;99.90
4922;DHT22;16625;53.624;10.106;2022-12-29T04:28:25;8.40;99.90
4922;DHT22;16625;53.624;10.106;2022-12-29T04:30:53;8.70;99.90
4922;DHT22;16625;53.624;10.106;2022-12-29T04:33:22;8.40;99.90
4922;DHT22;16625;53.624;10.106;2022-12-29T04:35:49;8.40;99.90
4922;DHT22;16625;53.624;10.106;2022-12-29T04:38:33;9.70;99.90
4922;DHT22;16625;53.624;10.106;2022-12-29T04:41:00;9.30;99.90
4922;DHT22;16625;53.624;10.106;2022-12-29T04:43:27;9.60;99.90
4922;DHT22;16625;53.624;10.106;2022-12-29T04:45:54;9.90;99.90
4922;DHT22;16625;53.624;10.106;2022-12-29T04:48:23;10.00;99.90
4922;DHT22;16625;53.624;10.106;2022-12-29T04:54:12;8.50;99.90
4922;DHT22;16625;53.624;10.106;2022-12-29T04:56:40;10.00;99.90
4922;DHT22;16625;53.624;10.106;2022-12-29T04:59:07;10.00;99.90
4922;DHT22;16625;53.624;10.106;2022-12-29T05:04:10;8.60;99.90
4922;DHT22;16625;53.624;10.106;2022-12-29T05:06:37;9.70;99.90
4922;DHT22;16625;53.624;10.106;2022-12-29T05:09:04;8.50;99.90
4922;DHT22;16625;53.624;10.106;2022-12-29T05:11:31;10.00;99.90
4922;DHT22;16625;53.624;10.106;2022-12-29T05:14:06;8.90;99.90
4922;DHT22;16625;53.624;10.106;2022-12-29T05:16:33;8.60;99.90
4922;DHT22;16625;53.624;10.106;2022-12-29T05:19:00;9.50;99.90
4922;DHT22;16625;53.624;10.106;2022-12-29T05:21:29;8.70;99.90
4922;DHT22;16625;53.624;10.106;2022-12-29T05:23:56;8.60;99.90
4922;DHT22;16625;53.624;10.106;2022-12-29T05:26:22;9.60;99.90
4922;DHT22;16625;53.624;10.106;2022-12-29T05:28:50;8.60;99.90
4922;DHT22;16625;53.624;10.106;2022-12-29T05:31:20;9.30;99.90
4922;DHT22;16625;53.624;10.106;2022-12-29T05:33:47;9.90;99.90
4922;DHT22;16625;53.624;10.106;2022-12-29T05:36:14;8.60;99.90
4922;DHT22;16625;53.624;10.106;2022-12-29T05:38:42;8.60;99.90
4922;DHT22;16625;53.624;10.106;2022-12-29T05:41:09;8.20;99.90
4922;DHT22;16625;53.624;10.106;2022-12-29T05:43:36;8.60;99.90
4922;DHT22;16625;53.624;10.106;2022-12-29T05:46:03;9.40;99.90
4922;DHT22;16625;53.624;10.106;2022-12-29T05:48:30;8.70;99.90
4922;DHT22;16625;53.624;10.106;2022-12-29T05:50:57;8.70;99.90
4922;DHT22;16625;53.624;10.106;2022-12-29T05:53:24;9.50;99.90
4922;DHT22;16625;53.624;10.106;2022-12-29T05:55:57;8.50;99.90
4922;DHT22;16625;53.624;10.106;2022-12-29T05:58:23;8.80;99.90
4922;DHT22;16625;53.624;10.106;2022-12-29T06:00:51;10.20;99.90
4922;DHT22;16625;53.624;10.106;2022-12-29T06:03:18;9.70;99.90
4922;DHT22;16625;53.624;10.106;2022-12-29T06:05:45;9.50;99.90
4922;DHT22;16625;53.624;10.106;2022-12-29T06:08:14;10.10;99.90
4922;DHT22;16625;53.624;10.106;2022-12-29T06:10:42;8.90;99.90
4922;DHT22;16625;53.624;10.106;2022-12-29T06:13:11;8.90;99.90
4922;DHT22;16625;53.624;10.106;2022-12-29T06:15:41;9.30;99.90
4922;DHT22;16625;53.624;10.106;2022-12-29T06:18:08;9.90;99.90
4922;DHT22;16625;53.624;10.106;2022-12-29T06:20:38;8.90;99.90
4922;DHT22;16625;53.624;10.106;2022-12-29T06:23:05;8.90;99.90
4922;DHT22;16625;53.624;10.106;2022-12-29T06:25:33;10.10;99.90
4922;DHT22;16625;53.624;10.106;2022-12-29T06:28:02;9.60;99.90
4922;DHT22;16625;53.624;10.106;2022-12-29T06:30:32;10.00;99.90
4922;DHT22;16625;53.624;10.106;2022-12-29T06:32:59;9.20;99.90
4922;DHT22;16625;53.624;10.106;2022-12-29T06:35:26;10.20;99.90
4922;DHT22;16625;53.624;10.106;2022-12-29T06:37:53;10.20;99.90
4922;DHT22;16625;53.624;10.106;2022-12-29T06:44:09;9.10;99.90
4922;DHT22;16625;53.624;10.106;2022-12-29T06:46:41;9.10;99.90
4922;DHT22;16625;53.624;10.106;2022-12-29T06:49:08;9.10;99.90
4922;DHT22;16625;53.624;10.106;2022-12-29T06:51:35;9.10;99.90
4922;DHT22;16625;53.624;10.106;2022-12-29T06:54:01;9.20;99.90
4922;DHT22;16625;53.624;10.106;2022-12-29T06:56:28;8.00;99.90
4922;DHT22;16625;53.624;10.106;2022-12-29T06:58:55;9.00;99.90
4922;DHT22;16625;53.624;10.106;2022-12-29T07:01:22;8.90;99.90
4922;DHT22;16625;53.624;10.106;2022-12-29T07:03:51;9.10;99.90
4922;DHT22;16625;53.624;10.106;2022-12-29T07:06:20;8.90;99.90
4922;DHT22;16625;53.624;10.106;2022-12-29T07:08:49;8.90;99.90
4922;DHT22;16625;53.624;10.106;2022-12-29T07:11:16;8.90;99.90
4922;DHT22;16625;53.624;10.106;2022-12-29T07:13:45;9.90;99.90
4922;DHT22;16625;53.624;10.106;2022-12-29T07:16:12;8.80;99.90
4922;DHT22;16625;53.624;10.106;2022-12-29T07:18:39;9.80;99.90
4922;DHT22;16625;53.624;10.106;2022-12-29T07:21:08;8.80;99.90
4922;DHT22;16625;53.624;10.106;2022-12-29T07:23:36;8.90;99.90
4922;DHT22;16625;53.624;10.106;2022-12-29T07:26:05;8.80;99.90
4922;DHT22;16625;53.624;10.106;2022-12-29T07:28:36;8.80;99.90
4922;DHT22;16625;53.624;10.106;2022-12-29T07:31:05;8.80;99.90
4922;DHT22;16625;53.624;10.106;2022-12-29T07:33:35;9.10;99.90
4922;DHT22;16625;53.624;10.106;2022-12-29T07:36:04;8.70;99.90
4922;DHT22;16625;53.624;10.106;2022-12-29T07:38:35;8.90;99.90
4922;DHT22;16625;53.624;10.106;2022-12-29T07:41:02;10.10;99.90
4922;DHT22;16625;53.624;10.106;2022-12-29T07:43:32;9.80;99.90
4922;DHT22;16625;53.624;10.106;2022-12-29T07:45:59;9.60;99.90
4922;DHT22;16625;53.624;10.106;2022-12-29T07:48:28;8.60;99.90
4922;DHT22;16625;53.624;10.106;2022-12-29T07:56:49;8.00;99.90
4922;DHT22;16625;53.624;10.106;2022-12-29T07:59:49;9.00;99.90
4922;DHT22;16625;53.624;10.106;2022-12-29T08:03:02;8.90;99.90
4922;DHT22;16625;53.624;10.106;2022-12-29T08:06:39;8.90;99.90
4922;DHT22;16625;53.624;10.106;2022-12-29T08:09:21;8.80;99.90
4922;DHT22;16625;53.624;10.106;2022-12-29T08:11:53;8.70;99.90
4922;DHT22;16625;53.624;10.106;2022-12-29T08:14:24;8.20;99.90
4922;DHT22;16625;53.624;10.106;2022-12-29T08:16:51;8.90;99.90
4922;DHT22;16625;53.624;10.106;2022-12-29T08:19:21;10.00;99.90
4922;DHT22;16625;53.624;10.106;2022-12-29T08:21:55;9.00;99.90
4922;DHT22;16625;53.624;10.106;2022-12-29T08:24:31;9.70;99.90
4922;DHT22;16625;53.624;10.106;2022-12-29T08:27:19;8.90;99.90
4922;DHT22;16625;53.624;10.106;2022-12-29T08:30:08;8.90;99.90
4922;DHT22;16625;53.624;10.106;2022-12-29T08:32:53;8.90;99.90
4922;DHT22;16625;53.624;10.106;2022-12-29T08:35:24;10.20;99.90
4922;DHT22;16625;53.624;10.106;2022-12-29T08:37:51;10.10;99.90
4922;DHT22;16625;53.624;10.106;2022-12-29T08:40:21;9.70;99.90
4922;DHT22;16625;53.624;10.106;2022-12-29T08:42:51;8.50;99.90
4922;DHT22;16625;53.624;10.106;2022-12-29T08:45:26;9.00;99.90
4922;DHT22;16625;53.624;10.106;2022-12-29T08:47:53;9.00;99.90
4922;DHT22;16625;53.624;10.106;2022-12-29T08:50:24;9.90;99.90
4922;DHT22;16625;53.624;10.106;2022-12-29T08:53:01;10.10;99.90
4922;DHT22;16625;53.624;10.106;2022-12-29T08:55:34;9.20;99.90
4922;DHT22;16625;53.624;10.106;2022-12-29T08:58:33;8.80;99.90
4922;DHT22;16625;53.624;10.106;2022-12-29T09:01:00;9.30;99.90
4922;DHT22;16625;53.624;10.106;2022-12-29T09:03:27;9.40;99.90
4922;DHT22;16625;53.624;10.106;2022-12-29T09:05:59;10.60;99.90
4922;DHT22;16625;53.624;10.106;2022-12-29T09:08:30;10.80;99.90
4922;DHT22;16625;53.624;10.106;2022-12-29T09:11:06;9.70;99.90
4922;DHT22;16625;53.624;10.106;2022-12-29T09:13:45;10.70;99.90
4922;DHT22;16625;53.624;10.106;2022-12-29T09:16:16;11.20;99.90
4922;DHT22;16625;53.624;10.106;2022-12-29T09:18:54;10.80;99.90
4922;DHT22;16625;53.624;10.106;2022-12-29T09:21:22;10.10;99.90
4922;DHT22;16625;53.624;10.106;2022-12-29T09:23:52;10.30;99.90
4922;DHT22;16625;53.624;10.106;2022-12-29T09:26:31;11.20;99.90
4922;DHT22;16625;53.624;10.106;2022-12-29T09:29:05;10.10;99.90
4922;DHT22;16625;53.624;10.106;2022-12-29T09:31:33;10.00;99.90
4922;DHT22;16625;53.624;10.106;2022-12-29T09:34:02;10.10;99.90
4922;DHT22;16625;53.624;10.106;2022-12-29T09:36:35;10.40;99.90
4922;DHT22;16625;53.624;10.106;2022-12-29T09:39:08;10.50;99.90
4922;DHT22;16625;53.624;10.106;2022-12-29T09:41:38;11.50;99.90
4922;DHT22;16625;53.624;10.106;2022-12-29T09:44:14;10.70;99.90
4922;DHT22;16625;53.624;10.106;2022-12-29T09:46:46;10.10;99.90
4922;DHT22;16625;53.624;10.106;2022-12-29T09:49:24;11.60;99.90
4922;DHT22;16625;53.624;10.106;2022-12-29T09:51:57;11.30;99.90
4922;DHT22;16625;53.624;10.106;2022-12-29T09:54:38;11.60;99.90
4922;DHT22;16625;53.624;10.106;2022-12-29T09:57:13;11.70;99.90
4922;DHT22;16625;53.624;10.106;2022-12-29T09:59:46;10.60;99.90
4922;DHT22;16625;53.624;10.106;2022-12-29T10:02:29;10.50;99.90
4922;DHT22;16625;53.624;10.106;2022-12-29T10:04:58;11.50;99.90
4922;DHT22;16625;53.624;10.106;2022-12-29T10:07:33;9.30;99.90
4922;DHT22;16625;53.624;10.106;2022-12-29T10:10:24;10.70;99.90
4922;DHT22;16625;53.624;10.106;2022-12-29T10:13:02;9.60;99.90
4922;DHT22;16625;53.624;10.106;2022-12-29T10:15:44;10.40;1.00
4922;DHT22;16625;53.624;10.106;2022-12-29T10:18:32;11.60;1.00
4922;DHT22;16625;53.624;10.106;2022-12-29T10:21:13;9.90;99.90
4922;DHT22;16625;53.624;10.106;2022-12-29T10:23:51;10.50;1.00
4922;DHT22;16625;53.624;10.106;2022-12-29T10:26:20;11.60;99.90
4922;DHT22;16625;53.624;10.106;2022-12-29T10:28:57;11.20;99.90
4922;DHT22;16625;53.624;10.106;2022-12-29T10:31:37;9.40;99.90
4922;DHT22;16625;53.624;10.106;2022-12-29T10:34:15;10.00;99.90
4922;DHT22;16625;53.624;10.106;2022-12-29T10:36:48;9.80;99.90
4922;DHT22;16625;53.624;10.106;2022-12-29T10:39:21;9.90;99.90
4922;DHT22;16625;53.624;10.106;2022-12-29T10:41:53;10.90;99.90
4922;DHT22;16625;53.624;10.106;2022-12-29T10:44:22;9.90;99.90
4922;DHT22;16625;53.624;10.106;2022-12-29T10:46:58;10.70;99.90
4922;DHT22;16625;53.624;10.106;2022-12-29T10:49:30;10.00;1.00
4922;DHT22;16625;53.624;10.106;2022-12-29T10:52:00;10.10;1.00
4922;DHT22;16625;53.624;10.106;2022-12-29T10:54:32;11.40;99.90
4922;DHT22;16625;53.624;10.106;2022-12-29T10:57:05;10.10;99.90
4922;DHT22;16625;53.624;10.106;2022-12-29T10:59:36;10.30;1.00
4922;DHT22;16625;53.624;10.106;2022-12-29T11:02:39;10.10;15.90
4922;DHT22;16625;53.624;10.106;2022-12-29T11:05:18;10.10;1.00
4922;DHT22;16625;53.624;10.106;2022-12-29T11:07:47;10.90;1.00
4922;DHT22;16625;53.624;10.106;2022-12-29T11:10:20;10.00;1.00
4922;DHT22;16625;53.624;10.106;2022-12-29T11:13:00;10.00;99.90
4922;DHT22;16625;53.624;10.106;2022-12-29T11:15:40;10.00;99.90
4922;DHT22;16625;53.624;10.106;2022-12-29T11:18:21;9.90;99.90
4922;DHT22;16625;53.624;10.106;2022-12-29T11:20:49;11.00;1.00
4922;DHT22;16625;53.624;10.106;2022-12-29T11:23:26;9.90;1.00
4922;DHT22;16625;53.624;10.106;2022-12-29T11:26:16;9.90;99.90
4922;DHT22;16625;53.624;10.106;2022-12-29T11:28:45;10.10;99.90
4922;DHT22;16625;53.624;10.106;2022-12-29T11:31:16;11.00;99.90
4922;DHT22;16625;53.624;10.106;2022-12-29T11:33:45;10.30;1.00
4922;DHT22;16625;53.624;10.106;2022-12-29T11:36:14;10.40;99.90
4922;DHT22;16625;53.624;10.106;2022-12-29T11:38:46;10.40;1.00
4922;DHT22;16625;53.624;10.106;2022-12-29T11:41:20;10.50;99.90
4922;DHT22;16625;53.624;10.106;2022-12-29T11:43:48;10.50;99.90
4922;DHT22;16625;53.624;10.106;2022-12-29T11:46:18;10.60;30.00
4922;DHT22;16625;53.624;10.106;2022-12-29T11:48:47;10.60;86.10
4922;DHT22;16625;53.624;10.106;2022-12-29T11:51:22;10.70;99.90
4922;DHT22;16625;53.624;10.106;2022-12-29T11:53:56;9.90;99.90
4922;DHT22;16625;53.624;10.106;2022-12-29T11:56:34;10.60;99.90
4922;DHT22;16625;53.624;10.106;2022-12-29T11:59:34;10.60;99.90
4922;DHT22;16625;53.624;10.106;2022-12-29T12:02:22;10.70;99.90
4922;DHT22;16625;53.624;10.106;2022-12-29T12:04:57;10.60;1.00
4922;DHT22;16625;53.624;10.106;2022-12-29T12:07:37;10.70;1.00
4922;DHT22;16625;53.624;10.106;2022-12-29T12:10:10;10.70;1.00
4922;DHT22;16625;53.624;10.106;2022-12-29T12:12:44;10.70;1.00
4922;DHT22;16625;53.624;10.106;2022-12-29T12:15:17;10.60;1.00
4922;DHT22;16625;53.624;10.106;2022-12-29T12:17:50;11.10;1.00
4922;DHT22;16625;53.624;10.106;2022-12-29T12:20:22;10.50;1.00
4922;DHT22;16625;53.624;10.106;2022-12-29T12:22:58;10.40;1.30
4922;DHT22;16625;53.624;10.106;2022-12-29T12:25:32;10.50;55.50
4922;DHT22;16625;53.624;10.106;2022-12-29T12:28:05;10.40;23.90
4922;DHT22;16625;53.624;10.106;2022-12-29T12:30:38;10.30;99.90
4922;DHT22;16625;53.624;10.106;2022-12-29T12:33:15;10.30;99.90
4922;DHT22;16625;53.624;10.106;2022-12-29T12:35:53;10.40;99.90
4922;DHT22;16625;53.624;10.106;2022-12-29T12:38:30;10.30;99.90
4922;DHT22;16625;53.624;10.106;2022-12-29T12:41:05;10.30;99.90
4922;DHT22;16625;53.624;10.106;2022-12-29T12:43:43;10.20;99.90
4922;DHT22;16625;53.624;10.106;2022-12-29T12:46:32;10.30;99.90
4922;DHT22;16625;53.624;10.106;2022-12-29T12:49:25;10.30;99.90
4922;DHT22;16625;53.624;10.106;2022-12-29T12:52:05;10.30;99.90
4922;DHT22;16625;53.624;10.106;2022-12-29T12:54:47;10.20;99.90
4922;DHT22;16625;53.624;10.106;2022-12-29T12:57:25;10.60;99.90
4922;DHT22;16625;53.624;10.106;2022-12-29T13:00:00;11.30;99.90
4922;DHT22;16625;53.624;10.106;2022-12-29T13:02:37;10.20;99.90
4922;DHT22;16625;53.624;10.106;2022-12-29T13:05:25;10.20;99.90
4922;DHT22;16625;53.624;10.106;2022-12-29T13:08:18;10.20;99.90
4922;DHT22;16625;53.624;10.106;2022-12-29T13:10:52;10.10;99.90
4922;DHT22;16625;53.624;10.106;2022-12-29T13:13:37;10.20;99.90
4922;DHT22;16625;53.624;10.106;2022-12-29T13:16:11;11.20;99.90
4922;DHT22;16625;53.624;10.106;2022-12-29T13:18:46;11.50;99.90
4922;DHT22;16625;53.624;10.106;2022-12-29T13:21:27;11.30;99.90
4922;DHT22;16625;53.624;10.106;2022-12-29T13:24:03;10.30;99.90
4922;DHT22;16625;53.624;10.106;2022-12-29T13:26:39;11.10;99.90
4922;DHT22;16625;53.624;10.106;2022-12-29T13:29:14;10.50;99.90
4922;DHT22;16625;53.624;10.106;2022-12-29T13:31:49;10.00;99.90
4922;DHT22;16625;53.624;10.106;2022-12-29T13:34:28;10.00;99.90
4922;DHT22;16625;53.624;10.106;2022-12-29T13:37:03;10.00;1.00
4922;DHT22;16625;53.624;10.106;2022-12-29T13:39:34;9.80;99.90
4922;DHT22;16625;53.624;10.106;2022-12-29T13:42:04;10.90;1.00
4922;DHT22;16625;53.624;10.106;2022-12-29T13:44:34;9.50;1.00
4922;DHT22;16625;53.624;10.106;2022-12-29T13:47:10;9.40;99.90
4922;DHT22;16625;53.624;10.106;2022-12-29T13:49:43;10.10;99.90
4922;DHT22;16625;53.624;10.106;2022-12-29T13:52:15;8.80;28.90
4922;DHT22;16625;53.624;10.106;2022-12-29T13:54:51;9.80;99.90
4922;DHT22;16625;53.624;10.106;2022-12-29T13:57:30;10.30;99.90
4922;DHT22;16625;53.624;10.106;2022-12-29T14:00:07;9.00;99.90
4922;DHT22;16625;53.624;10.106;2022-12-29T14:02:46;8.90;99.90
4922;DHT22;16625;53.624;10.106;2022-12-29T14:05:29;8.90;99.90
4922;DHT22;16625;53.624;10.106;2022-12-29T14:07:59;8.90;99.90
4922;DHT22;16625;53.624;10.106;2022-12-29T14:10:48;9.00;99.90
4922;DHT22;16625;53.624;10.106;2022-12-29T14:13:17;8.20;99.90
4922;DHT22;16625;53.624;10.106;2022-12-29T14:15:52;7.60;99.90
4922;DHT22;16625;53.624;10.106;2022-12-29T14:18:22;7.20;99.90
4922;DHT22;16625;53.624;10.106;2022-12-29T14:20:54;7.00;99.90
4922;DHT22;16625;53.624;10.106;2022-12-29T14:23:35;6.90;99.90
4922;DHT22;16625;53.624;10.106;2022-12-29T14:26:15;6.90;99.90
4922;DHT22;16625;53.624;10.106;2022-12-29T14:28:45;6.90;99.90
4922;DHT22;16625;53.624;10.106;2022-12-29T14:31:35;6.80;99.90
4922;DHT22;16625;53.624;10.106;2022-12-29T14:34:30;6.80;99.90
4922;DHT22;16625;53.624;10.106;2022-12-29T14:36:59;6.90;99.90
4922;DHT22;16625;53.624;10.106;2022-12-29T14:39:34;7.80;99.90
4922;DHT22;16625;53.624;10.106;2022-12-29T14:42:05;6.80;99.90
4922;DHT22;16625;53.624;10.106;2022-12-29T14:44:33;7.80;99.90
4922;DHT22;16625;53.624;10.106;2022-12-29T14:47:04;6.90;99.90
4922;DHT22;16625;53.624;10.106;2022-12-29T14:49:39;6.80;99.90
4922;DHT22;16625;53.624;10.106;2022-12-29T14:52:16;6.90;99.90
4922;DHT22;16625;53.624;10.106;2022-12-29T14:54:49;6.90;99.90
4922;DHT22;16625;53.624;10.106;2022-12-29T14:57:24;7.60;99.90
4922;DHT22;16625;53.624;10.106;2022-12-29T14:59:54;6.80;99.90
4922;DHT22;16625;53.624;10.106;2022-12-29T15:02:24;6.80;99.90
4922;DHT22;16625;53.624;10.106;2022-12-29T15:04:53;6.70;99.90
4922;DHT22;16625;53.624;10.106;2022-12-29T15:07:26;6.70;99.90
4922;DHT22;16625;53.624;10.106;2022-12-29T15:09:57;6.70;99.90
4922;DHT22;16625;53.624;10.106;2022-12-29T15:12:54;6.60;99.90
4922;DHT22;16625;53.624;10.106;2022-12-29T15:15:24;6.60;99.90
4922;DHT22;16625;53.624;10.106;2022-12-29T15:17:52;8.00;99.90
4922;DHT22;16625;53.624;10.106;2022-12-29T15:20:25;6.40;99.90
4922;DHT22;16625;53.624;10.106;2022-12-29T15:22:54;6.40;99.90
4922;DHT22;16625;53.624;10.106;2022-12-29T15:25:22;6.40;99.90
4922;DHT22;16625;53.624;10.106;2022-12-29T15:27:54;6.70;99.90
4922;DHT22;16625;53.624;10.106;2022-12-29T15:30:22;6.80;99.90
4922;DHT22;16625;53.624;10.106;2022-12-29T15:32:50;6.90;99.90
4922;DHT22;16625;53.624;10.106;2022-12-29T15:35:29;6.90;99.90
4922;DHT22;16625;53.624;10.106;2022-12-29T15:37:58;7.00;99.90
4922;DHT22;16625;53.624;10.106;2022-12-29T15:40:30;7.00;99.90
4922;DHT22;16625;53.624;10.106;2022-12-29T15:43:21;7.10;99.90
4922;DHT22;16625;53.624;10.106;2022-12-29T15:45:51;7.10;99.90
4922;DHT22;16625;53.624;10.106;2022-12-29T15:48:32;7.20;99.90
4922;DHT22;16625;53.624;10.106;2022-12-29T15:51:00;7.10;99.90
4922;DHT22;16625;53.624;10.106;2022-12-29T15:53:29;7.10;99.90
4922;DHT22;16625;53.624;10.106;2022-12-29T15:56:01;7.10;99.90
4922;DHT22;16625;53.624;10.106;2022-12-29T15:58:41;7.00;99.90
4922;DHT22;16625;53.624;10.106;2022-12-29T16:01:17;8.40;99.90
4922;DHT22;16625;53.624;10.106;2022-12-29T16:03:44;8.00;99.90
4922;DHT22;16625;53.624;10.106;2022-12-29T16:06:27;7.10;99.90
4922;DHT22;16625;53.624;10.106;2022-12-29T16:09:14;7.70;99.90
4922;DHT22;16625;53.624;10.106;2022-12-29T16:11:43;7.40;99.90
4922;DHT22;16625;53.624;10.106;2022-12-29T16:14:34;6.90;99.90
4922;DHT22;16625;53.624;10.106;2022-12-29T16:17:20;6.70;99.90
4922;DHT22;16625;53.624;10.106;2022-12-29T16:19:51;6.60;99.90
4922;DHT22;16625;53.624;10.106;2022-12-29T16:22:26;7.50;99.90
4922;DHT22;16625;53.624;10.106;2022-12-29T16:24:57;6.50;99.90
4922;DHT22;16625;53.624;10.106;2022-12-29T16:27:31;6.50;99.90
4922;DHT22;16625;53.624;10.106;2022-12-29T16:30:04;6.50;99.90
4922;DHT22;16625;53.624;10.106;2022-12-29T16:32:32;6.50;99.90
4922;DHT22;16625;53.624;10.106;2022-12-29T16:35:11;7.10;99.90
4922;DHT22;16625;53.624;10.106;2022-12-29T16:37:39;6.50;99.90
4922;DHT22;16625;53.624;10.106;2022-12-29T16:40:27;6.30;99.90
4922;DHT22;16625;53.624;10.106;2022-12-29T16:42:57;6.40;99.90
4922;DHT22;16625;53.624;10.106;2022-12-29T16:48:36;6.20;99.90
4922;DHT22;16625;53.624;10.106;2022-12-29T16:51:14;6.30;99.90
4922;DHT22;16625;53.624;10.106;2022-12-29T16:53:48;6.30;99.90
4922;DHT22;16625;53.624;10.106;2022-12-29T16:56:18;6.30;99.90
4922;DHT22;16625;53.624;10.106;2022-12-29T16:58:46;6.40;99.90
4922;DHT22;16625;53.624;10.106;2022-12-29T17:01:14;7.40;99.90